createdAt,value
2019-03-29T00:03:14.059Z,3.90
2019-03-29T00:08:20.165Z,3.94
2019-03-29T00:13:26.211Z,3.97
2019-03-29T00:18:32.281Z,3.63
2019-03-29T00:23:38.302Z,3.56
2019-03-29T00:28:44.353Z,3.91
2019-03-29T00:33:50.417Z,3.91
2019-03-29T00:38:56.481Z,4.32
2019-03-29T00:44:02.765Z,4.53
2019-03-29T00:49:08.636Z,4.53
2019-03-29T00:54:14.630Z,4.54
2019-03-29T00:59:20.769Z,4.33
2019-03-29T01:04:26.749Z,4.31
2019-03-29T01:09:32.861Z,4.06
2019-03-29T01:14:38.851Z,3.90
2019-03-29T01:19:44.929Z,3.98
2019-03-29T01:24:50.950Z,3.98
2019-03-29T01:29:57.141Z,3.88
2019-03-29T01:35:03.124Z,4.02
2019-03-29T01:40:09.599Z,4.00
2019-03-29T01:45:15.765Z,3.98
2019-03-29T01:50:21.797Z,4.06
2019-03-29T01:55:27.946Z,4.15
2019-03-29T02:00:36.129Z,4.29
2019-03-29T02:05:42.341Z,4.48
2019-03-29T02:10:49.034Z,4.58
2019-03-29T02:15:55.150Z,4.49
2019-03-29T02:21:01.124Z,4.20
2019-03-29T02:26:07.099Z,4.17
2019-03-29T02:31:13.099Z,4.24
2019-03-29T02:36:19.302Z,4.51
2019-03-29T02:41:25.302Z,4.41
2019-03-29T02:46:31.177Z,4.39
2019-03-29T02:51:37.227Z,4.28
2019-03-29T02:56:43.277Z,4.40
2019-03-29T03:01:49.370Z,4.29
2019-03-29T03:06:55.433Z,4.19
2019-03-29T03:12:02.145Z,4.20
2019-03-29T03:17:08.255Z,4.16
2019-03-29T03:22:14.242Z,4.04
2019-03-29T03:27:20.220Z,3.88
2019-03-29T03:32:26.068Z,3.62
2019-03-29T03:37:32.062Z,3.40
2019-03-29T03:42:38.156Z,3.31
2019-03-29T03:47:44.088Z,3.24
2019-03-29T03:52:50.193Z,3.33
2019-03-29T03:57:57.968Z,3.33
2019-03-29T04:03:04.202Z,3.48
2019-03-29T04:08:10.270Z,3.39
2019-03-29T04:13:16.497Z,3.38
2019-03-29T04:18:22.638Z,3.41
2019-03-29T04:23:28.646Z,3.43
2019-03-29T04:28:34.610Z,3.66
2019-03-29T04:33:40.774Z,3.71
2019-03-29T04:38:46.698Z,3.58
2019-03-29T04:43:52.732Z,3.30
2019-03-29T04:48:58.622Z,3.36
2019-03-29T04:54:04.605Z,3.54
2019-03-29T04:59:10.741Z,3.74
2019-03-29T05:04:16.706Z,3.88
2019-03-29T05:09:22.814Z,3.85
2019-03-29T05:14:28.741Z,3.53
2019-03-29T05:19:34.747Z,3.33
2019-03-29T05:24:40.761Z,3.37
2019-03-29T05:29:46.716Z,3.56
2019-03-29T05:34:52.651Z,3.81
2019-03-29T05:39:58.563Z,3.87
2019-03-29T05:45:04.624Z,3.69
2019-03-29T05:50:10.861Z,3.52
2019-03-29T05:55:16.897Z,3.65
2019-03-29T06:00:22.887Z,3.83
2019-03-29T06:05:28.834Z,3.97
2019-03-29T06:10:47.891Z,3.95
2019-03-29T06:15:42.576Z,3.83
2019-03-29T06:20:48.576Z,3.69
2019-03-29T06:25:54.631Z,3.65
2019-03-29T06:31:00.546Z,3.77
2019-03-29T06:36:08.846Z,3.95
2019-03-29T06:41:14.796Z,4.20
2019-03-29T06:46:23.555Z,4.51
2019-03-29T06:51:29.780Z,4.83
2019-03-29T06:56:35.940Z,5.17
2019-03-29T07:01:41.940Z,5.64
2019-03-29T07:06:48.430Z,6.27
2019-03-29T07:11:54.560Z,6.65
2019-03-29T07:17:00.662Z,7.06
2019-03-29T07:22:06.789Z,7.52
2019-03-29T07:27:13.160Z,7.78
2019-03-29T07:32:19.480Z,7.82
2019-03-29T07:37:25.460Z,7.63
2019-03-29T07:42:31.498Z,7.39
2019-03-29T07:47:37.981Z,7.40
2019-03-29T07:52:44.590Z,7.24
2019-03-29T07:57:50.704Z,7.36
2019-03-29T08:02:56.899Z,7.57
2019-03-29T08:08:03.282Z,7.81
2019-03-29T08:13:09.729Z,8.03
2019-03-29T08:18:16.573Z,8.07
2019-03-29T08:23:22.579Z,8.11
2019-03-29T08:28:28.901Z,8.25
2019-03-29T08:33:35.477Z,8.14
2019-03-29T08:38:41.877Z,8.45
2019-03-29T08:43:48.140Z,8.41
2019-03-29T08:48:57.439Z,8.62
2019-03-29T08:54:04.159Z,8.62
2019-03-29T08:59:10.360Z,8.53
2019-03-29T09:04:16.923Z,8.61
2019-03-29T09:09:26.299Z,8.64
2019-03-29T09:14:32.601Z,8.94
2019-03-29T09:19:38.963Z,9.51
2019-03-29T09:24:44.999Z,9.47
2019-03-29T09:29:51.899Z,9.66
2019-03-29T09:34:58.003Z,9.82
2019-03-29T09:40:04.361Z,9.88
2019-03-29T09:45:10.602Z,10.12
2019-03-29T09:50:17.158Z,10.10
2019-03-29T09:55:23.240Z,10.25
2019-03-29T10:00:29.624Z,10.57
2019-03-29T10:05:35.622Z,10.23
2019-03-29T10:10:42.009Z,10.08
2019-03-29T10:15:51.142Z,10.04
2019-03-29T10:20:56.140Z,10.54
2019-03-29T10:26:02.167Z,11.03
2019-03-29T10:31:08.240Z,11.27
2019-03-29T10:36:14.759Z,11.49
2019-03-29T10:41:22.707Z,11.67
2019-03-29T10:46:28.999Z,12.14
2019-03-29T10:51:35.364Z,12.20
2019-03-29T10:56:41.514Z,12.75
2019-03-29T11:01:47.781Z,12.58
2019-03-29T11:06:54.218Z,12.75
2019-03-29T11:12:00.657Z,13.00
2019-03-29T11:17:07.022Z,13.02
2019-03-29T11:22:13.760Z,13.23
2019-03-29T11:27:22.467Z,13.12
2019-03-29T11:32:27.950Z,12.51
2019-03-29T11:37:34.001Z,13.98
2019-03-29T11:42:40.183Z,13.67
2019-03-29T11:47:46.221Z,14.19
2019-03-29T11:52:52.380Z,13.34
2019-03-29T11:57:58.720Z,14.30
2019-03-29T12:03:09.177Z,15.37
2019-03-29T12:08:14.492Z,15.58
2019-03-29T12:13:20.759Z,15.85
2019-03-29T12:18:27.237Z,16.19
2019-03-29T12:23:33.399Z,15.89
2019-03-29T12:28:39.457Z,16.18
2019-03-29T12:33:45.854Z,16.06
2019-03-29T12:38:51.821Z,15.86
2019-03-29T12:43:57.874Z,15.93
2019-03-29T12:49:03.849Z,15.75
2019-03-29T12:54:12.130Z,16.05
2019-03-29T12:59:18.121Z,16.31
2019-03-29T13:04:24.509Z,17.23
2019-03-29T13:09:32.549Z,17.71
2019-03-29T13:14:38.654Z,17.17
2019-03-29T13:19:44.693Z,15.65
2019-03-29T13:24:50.784Z,15.93
2019-03-29T13:29:56.704Z,15.14
2019-03-29T13:35:02.674Z,14.47
2019-03-29T13:40:10.110Z,15.10
2019-03-29T13:45:16.354Z,15.91
2019-03-29T13:50:22.704Z,16.48
2019-03-29T13:55:29.081Z,16.78
2019-03-29T14:00:35.791Z,15.94
2019-03-29T14:05:41.717Z,15.32
2019-03-29T14:10:47.749Z,15.61
2019-03-29T14:15:53.790Z,15.89
2019-03-29T14:21:00.694Z,16.54
2019-03-29T14:26:06.725Z,16.41
2019-03-29T14:31:12.749Z,16.85
2019-03-29T14:36:19.164Z,17.33
2019-03-29T14:41:25.206Z,17.65
2019-03-29T14:46:31.266Z,16.74
2019-03-29T14:51:38.255Z,15.69
2019-03-29T14:56:44.301Z,14.88
2019-03-29T15:01:50.254Z,14.66
2019-03-29T15:06:56.421Z,14.56
2019-03-29T15:12:02.440Z,14.63
2019-03-29T15:17:10.673Z,15.00
2019-03-29T15:22:16.689Z,15.49
2019-03-29T15:27:23.070Z,15.45
2019-03-29T15:32:29.121Z,15.15
2019-03-29T15:37:38.538Z,15.03
2019-03-29T15:42:44.775Z,14.83
2019-03-29T15:47:50.833Z,14.33
2019-03-29T15:52:59.761Z,14.18
2019-03-29T15:58:09.485Z,13.72
2019-03-29T16:03:15.504Z,14.05
2019-03-29T16:08:22.069Z,14.29
2019-03-29T16:13:28.016Z,14.53
2019-03-29T16:18:34.174Z,14.57
2019-03-29T16:23:40.178Z,14.66
2019-03-29T16:28:46.948Z,14.54
2019-03-29T16:33:52.989Z,14.36
2019-03-29T16:38:59.285Z,13.96
2019-03-29T16:44:05.456Z,13.86
2019-03-29T16:49:11.526Z,13.66
2019-03-29T16:54:17.609Z,12.99
2019-03-29T16:59:23.824Z,13.12
2019-03-29T17:04:29.808Z,13.10
2019-03-29T17:09:38.101Z,13.10
2019-03-29T17:14:44.090Z,13.09
2019-03-29T17:19:53.089Z,12.89
2019-03-29T17:25:02.066Z,12.23
2019-03-29T17:30:10.743Z,12.26
2019-03-29T17:35:16.919Z,12.31
2019-03-29T17:40:23.222Z,12.07
2019-03-29T17:45:29.271Z,11.99
2019-03-29T17:50:35.346Z,11.90
2019-03-29T17:55:41.526Z,11.58
2019-03-29T18:00:49.015Z,11.23
2019-03-29T18:05:54.975Z,11.13
2019-03-29T18:11:00.945Z,11.02
2019-03-29T18:16:06.961Z,10.87
2019-03-29T18:21:13.000Z,10.75
2019-03-29T18:26:18.970Z,10.52
2019-03-29T18:31:27.162Z,10.24
2019-03-29T18:36:33.765Z,9.95
2019-03-29T18:41:39.740Z,9.68
2019-03-29T18:46:45.953Z,9.36
2019-03-29T18:51:52.174Z,9.00
2019-03-29T18:56:58.313Z,8.78
2019-03-29T19:02:04.429Z,8.43
2019-03-29T19:07:10.355Z,8.07
2019-03-29T19:12:20.265Z,8.07
2019-03-29T19:22:33.253Z,7.86
2019-03-29T19:27:39.425Z,7.75
2019-03-29T19:32:45.857Z,7.96
2019-03-29T19:37:51.940Z,8.21
2019-03-29T19:42:57.916Z,8.12
2019-03-29T19:48:04.059Z,8.06
2019-03-29T19:53:10.383Z,8.07
2019-03-29T19:58:16.784Z,7.79
2019-03-29T20:03:22.914Z,7.82
2019-03-29T20:08:28.944Z,7.66
2019-03-29T20:13:34.929Z,7.21
2019-03-29T20:18:41.320Z,7.03
2019-03-29T20:23:47.503Z,6.93
2019-03-29T20:28:53.644Z,7.03
2019-03-29T20:33:59.646Z,7.08
2019-03-29T20:39:07.716Z,7.06
2019-03-29T20:44:13.720Z,7.15
2019-03-29T20:49:19.760Z,7.29
2019-03-29T20:54:25.780Z,7.55
2019-03-29T20:59:32.864Z,7.58
2019-03-29T21:04:39.647Z,7.80
2019-03-29T21:09:45.885Z,7.54
2019-03-29T21:14:52.001Z,7.01
2019-03-29T21:19:58.077Z,6.81
2019-03-29T21:25:04.464Z,6.82
2019-03-29T21:30:12.156Z,6.91
2019-03-29T21:35:18.207Z,7.04
2019-03-29T21:40:24.197Z,7.13
2019-03-29T21:45:30.198Z,7.00
2019-03-29T21:50:36.307Z,6.61
2019-03-29T21:55:42.752Z,6.28
2019-03-29T22:00:48.691Z,6.16
2019-03-29T22:05:56.387Z,6.17
2019-03-29T22:11:03.712Z,6.16
2019-03-29T22:16:09.983Z,6.04
2019-03-29T22:21:16.429Z,6.16
2019-03-29T22:26:22.711Z,6.19
2019-03-29T22:31:28.770Z,6.05
2019-03-29T22:36:35.061Z,5.59
2019-03-29T22:41:41.209Z,5.49
2019-03-29T22:46:47.246Z,5.28
2019-03-29T22:51:53.179Z,5.33
2019-03-29T22:56:59.504Z,5.42
2019-03-29T23:02:06.209Z,5.39
2019-03-29T23:07:12.250Z,5.08
2019-03-29T23:12:18.276Z,4.89
2019-03-29T23:17:24.392Z,4.76
2019-03-29T23:22:30.409Z,4.87
2019-03-29T23:27:36.556Z,4.57
2019-03-29T23:32:42.593Z,4.67
2019-03-29T23:37:48.605Z,4.75
2019-03-29T23:42:54.690Z,4.88
2019-03-29T23:48:01.501Z,4.98
2019-03-29T23:53:07.673Z,5.17
2019-03-29T23:58:14.009Z,5.67
